createdAt,value
2018-12-15T20:55:02.342Z,0.60
2018-12-15T20:57:30.932Z,0.60
2018-12-15T20:59:59.733Z,-0.01
2018-12-15T21:02:28.416Z,0.62
2018-12-15T21:04:57.364Z,0.61
2018-12-15T21:07:26.000Z,0.55
2018-12-15T21:09:54.690Z,0.59
2018-12-15T21:12:23.484Z,0.61
2018-12-15T21:14:52.062Z,0.60
2018-12-15T21:17:21.116Z,-0.18
2018-12-15T21:19:49.683Z,0.55
2018-12-15T21:22:18.678Z,0.52
2018-12-15T21:24:47.263Z,0.50
2018-12-15T21:27:15.954Z,0.47
2018-12-15T21:29:44.662Z,0.45
2018-12-15T21:32:13.312Z,0.40
2018-12-15T21:34:41.941Z,0.39
2018-12-15T21:37:10.495Z,0.35
2018-12-15T21:39:39.450Z,0.32
2018-12-15T21:42:08.002Z,0.30
2018-12-15T21:44:36.829Z,0.27
2018-12-15T21:47:05.412Z,0.26
2018-12-15T21:49:34.130Z,0.23
2018-12-15T21:52:02.776Z,0.20
2018-12-15T21:54:31.466Z,0.13
2018-12-15T21:57:00.314Z,0.13
2018-12-15T21:59:28.899Z,0.10
2018-12-15T22:01:57.634Z,0.07
2018-12-15T22:04:26.166Z,0.05
2018-12-15T22:06:54.753Z,0.06
2018-12-15T22:09:23.445Z,0.05
2018-12-15T22:11:52.020Z,0.00
2018-12-15T22:14:20.668Z,-0.77
2018-12-15T22:16:49.429Z,-0.04
2018-12-15T22:19:19.095Z,-0.04
2018-12-15T22:21:47.644Z,-0.06
2018-12-15T22:24:16.616Z,-0.05
2018-12-15T22:26:45.150Z,-0.05
2018-12-15T22:29:14.048Z,-0.07
2018-12-15T22:31:42.934Z,-0.09
2018-12-15T22:34:11.627Z,-0.09
2018-12-15T22:36:40.304Z,-0.08
2018-12-15T22:39:08.936Z,-0.12
2018-12-15T22:41:37.878Z,-0.12
2018-12-15T22:46:45.351Z,-0.16
2018-12-15T22:49:14.032Z,-0.43
2018-12-15T22:51:42.568Z,-0.19
2018-12-15T22:54:11.690Z,-0.20
2018-12-15T22:56:40.237Z,-0.22
2018-12-15T22:59:09.189Z,-0.23
2018-12-15T23:01:43.030Z,-0.22
2018-12-15T23:04:11.609Z,-0.69
2018-12-15T23:06:40.191Z,-0.26
2018-12-15T23:09:08.908Z,-0.69
2018-12-15T23:11:37.565Z,-0.31
2018-12-15T23:14:06.523Z,-0.32
2018-12-15T23:16:35.070Z,-0.32
2018-12-15T23:19:03.730Z,-0.34
2018-12-15T23:21:32.474Z,-0.32
2018-12-15T23:24:01.085Z,-0.33
2018-12-15T23:26:29.986Z,-0.53
2018-12-15T23:28:59.146Z,-0.35
2018-12-15T23:31:28.003Z,-0.34
2018-12-15T23:33:56.547Z,-0.35
2018-12-15T23:36:25.437Z,-0.33
2018-12-15T23:38:54.011Z,-0.32
2018-12-15T23:41:22.699Z,-0.29
2018-12-15T23:43:51.290Z,-0.26
2018-12-15T23:46:19.908Z,-0.23
2018-12-15T23:48:48.636Z,-0.24
2018-12-15T23:51:17.239Z,-0.24
2018-12-15T23:53:46.237Z,-0.23
2018-12-15T23:56:14.817Z,-0.22
2018-12-15T23:58:43.516Z,-0.21
